sensor_id;sensor_type;location;lat;lon;timestamp;pressure;altitude;pressure_sealevel;temperature
76007;BMP280;64699;0.000;0.000;2024-01-30T00:02:07;102347.59;;;19.94
76007;BMP280;64699;0.000;0.000;2024-01-30T00:04:32;102352.84;;;19.92
76007;BMP280;64699;0.000;0.000;2024-01-30T00:06:58;102348.06;;;19.93
76007;BMP280;64699;0.000;0.000;2024-01-30T00:09:23;102340.81;;;19.90
76007;BMP280;64699;0.000;0.000;2024-01-30T00:11:48;102333.78;;;19.89
76007;BMP280;64699;0.000;0.000;2024-01-30T00:14:13;102339.28;;;19.89
76007;BMP280;64699;0.000;0.000;2024-01-30T00:16:39;102327.00;;;19.90
76007;BMP280;64699;0.000;0.000;2024-01-30T00:19:04;102333.53;;;19.87
76007;BMP280;64699;0.000;0.000;2024-01-30T00:21:29;102326.75;;;19.88
76007;BMP280;64699;0.000;0.000;2024-01-30T00:23:54;102328.00;;;19.87
76007;BMP280;64699;0.000;0.000;2024-01-30T00:26:19;102318.47;;;19.88
76007;BMP280;64699;0.000;0.000;2024-01-30T00:28:45;102327.72;;;19.85
76007;BMP280;64699;0.000;0.000;2024-01-30T00:31:10;102304.41;;;19.86
76007;BMP280;64699;0.000;0.000;2024-01-30T00:33:37;102305.66;;;19.85
76007;BMP280;64699;0.000;0.000;2024-01-30T00:36:03;102299.88;;;19.83
76007;BMP280;64699;0.000;0.000;2024-01-30T00:38:28;102297.09;;;19.83
76007;BMP280;64699;0.000;0.000;2024-01-30T00:40:53;102299.88;;;19.83
76007;BMP280;64699;0.000;0.000;2024-01-30T00:43:18;102305.16;;;19.81
76007;BMP280;64699;0.000;0.000;2024-01-30T00:45:44;102301.13;;;19.82
76007;BMP280;64699;0.000;0.000;2024-01-30T00:48:10;102295.88;;;19.78
76007;BMP280;64699;0.000;0.000;2024-01-30T00:50:35;102296.88;;;19.81
76007;BMP280;64699;0.000;0.000;2024-01-30T00:53:00;102294.59;;;19.79
76007;BMP280;64699;0.000;0.000;2024-01-30T00:55:26;102299.38;;;19.79
76007;BMP280;64699;0.000;0.000;2024-01-30T00:57:51;102303.38;;;19.78
76007;BMP280;64699;0.000;0.000;2024-01-30T01:00:16;102292.34;;;19.78
76007;BMP280;64699;0.000;0.000;2024-01-30T01:02:42;102299.09;;;19.77
76007;BMP280;64699;0.000;0.000;2024-01-30T01:05:07;102289.31;;;19.76
76007;BMP280;64699;0.000;0.000;2024-01-30T01:07:33;102294.09;;;19.75
76007;BMP280;64699;0.000;0.000;2024-01-30T01:09:58;102294.09;;;19.75
76007;BMP280;64699;0.000;0.000;2024-01-30T01:12:23;102308.38;;;19.74
76007;BMP280;64699;0.000;0.000;2024-01-30T01:14:48;102299.09;;;19.77
76007;BMP280;64699;0.000;0.000;2024-01-30T01:17:14;102297.34;;;19.74
76007;BMP280;64699;0.000;0.000;2024-01-30T01:19:39;102302.09;;;19.73
76007;BMP280;64699;0.000;0.000;2024-01-30T01:22:04;102291.56;;;19.72
76007;BMP280;64699;0.000;0.000;2024-01-30T01:24:33;102288.81;;;19.72
76007;BMP280;64699;0.000;0.000;2024-01-30T01:26:58;102288.03;;;19.71
76007;BMP280;64699;0.000;0.000;2024-01-30T01:29:23;102299.06;;;19.71
76007;BMP280;64699;0.000;0.000;2024-01-30T01:31:53;102293.56;;;19.71
76007;BMP280;64699;0.000;0.000;2024-01-30T01:34:18;102292.78;;;19.71
76007;BMP280;64699;0.000;0.000;2024-01-30T01:36:44;102306.31;;;19.69
76007;BMP280;64699;0.000;0.000;2024-01-30T01:39:09;102291.81;;;19.68
76007;BMP280;64699;0.000;0.000;2024-01-30T01:41:34;102285.50;;;19.68
76007;BMP280;64699;0.000;0.000;2024-01-30T01:43:59;102282.75;;;19.68
76007;BMP280;64699;0.000;0.000;2024-01-30T01:46:27;102288.03;;;19.66
76007;BMP280;64699;0.000;0.000;2024-01-30T01:48:54;102285.00;;;19.64
76007;BMP280;64699;0.000;0.000;2024-01-30T01:51:20;102285.28;;;19.66
76007;BMP280;64699;0.000;0.000;2024-01-30T01:53:46;102281.00;;;19.65
76007;BMP280;64699;0.000;0.000;2024-01-30T01:56:11;102277.00;;;19.66
76007;BMP280;64699;0.000;0.000;2024-01-30T01:58:37;102278.25;;;19.65
76007;BMP280;64699;0.000;0.000;2024-01-30T02:01:02;102276.72;;;19.64
76007;BMP280;64699;0.000;0.000;2024-01-30T02:03:28;102275.97;;;19.63
76007;BMP280;64699;0.000;0.000;2024-01-30T02:05:55;102283.75;;;19.65
76007;BMP280;64699;0.000;0.000;2024-01-30T02:08:20;102273.22;;;19.69
76007;BMP280;64699;0.000;0.000;2024-01-30T02:10:45;102277.22;;;19.68
76007;BMP280;64699;0.000;0.000;2024-01-30T02:13:10;102278.47;;;19.67
76007;BMP280;64699;0.000;0.000;2024-01-30T02:15:35;102276.50;;;19.67
76007;BMP280;64699;0.000;0.000;2024-01-30T02:18:01;102269.97;;;19.65
76007;BMP280;64699;0.000;0.000;2024-01-30T02:20:26;102275.19;;;19.63
76007;BMP280;64699;0.000;0.000;2024-01-30T02:22:53;102276.19;;;19.60
76007;BMP280;64699;0.000;0.000;2024-01-30T02:25:19;102276.97;;;19.60
76007;BMP280;64699;0.000;0.000;2024-01-30T02:27:44;102270.69;;;19.60
76007;BMP280;64699;0.000;0.000;2024-01-30T02:30:10;102270.69;;;19.60
76007;BMP280;64699;0.000;0.000;2024-01-30T02:32:35;102267.66;;;19.58
76007;BMP280;64699;0.000;0.000;2024-01-30T02:35:00;102262.13;;;19.58
76007;BMP280;64699;0.000;0.000;2024-01-30T02:37:26;102264.91;;;19.58
76007;BMP280;64699;0.000;0.000;2024-01-30T02:39:51;102263.13;;;19.55
76007;BMP280;64699;0.000;0.000;2024-01-30T02:42:16;102271.38;;;19.55
76007;BMP280;64699;0.000;0.000;2024-01-30T02:44:41;102259.63;;;19.54
76007;BMP280;64699;0.000;0.000;2024-01-30T02:47:06;102270.19;;;19.56
76007;BMP280;64699;0.000;0.000;2024-01-30T02:49:32;102266.38;;;19.53
76007;BMP280;64699;0.000;0.000;2024-01-30T02:51:57;102264.13;;;19.52
76007;BMP280;64699;0.000;0.000;2024-01-30T02:54:22;102259.38;;;19.52
76007;BMP280;64699;0.000;0.000;2024-01-30T02:56:47;102261.84;;;19.50
76007;BMP280;64699;0.000;0.000;2024-01-30T02:59:13;102266.63;;;19.50
76007;BMP280;64699;0.000;0.000;2024-01-30T03:01:44;102265.88;;;19.55
76007;BMP280;64699;0.000;0.000;2024-01-30T03:04:10;102267.13;;;19.54
76007;BMP280;64699;0.000;0.000;2024-01-30T03:06:36;102258.34;;;19.50
76007;BMP280;64699;0.000;0.000;2024-01-30T03:09:01;102252.59;;;19.48
76007;BMP280;64699;0.000;0.000;2024-01-30T03:11:26;102253.06;;;19.46
76007;BMP280;64699;0.000;0.000;2024-01-30T03:13:51;102255.81;;;19.46
76007;BMP280;64699;0.000;0.000;2024-01-30T03:16:16;102268.59;;;19.44
76007;BMP280;64699;0.000;0.000;2024-01-30T03:18:41;102257.81;;;19.46
76007;BMP280;64699;0.000;0.000;2024-01-30T03:21:07;102256.56;;;19.47
76007;BMP280;64699;0.000;0.000;2024-01-30T03:23:32;102253.81;;;19.47
76007;BMP280;64699;0.000;0.000;2024-01-30T03:25:57;102256.28;;;19.45
76007;BMP280;64699;0.000;0.000;2024-01-30T03:28:23;102260.56;;;19.46
76007;BMP280;64699;0.000;0.000;2024-01-30T03:30:48;102257.56;;;19.44
76007;BMP280;64699;0.000;0.000;2024-01-30T03:33:13;102260.84;;;19.48
76007;BMP280;64699;0.000;0.000;2024-01-30T03:35:38;102253.31;;;19.48
76007;BMP280;64699;0.000;0.000;2024-01-30T03:38:03;102252.06;;;19.49
76007;BMP280;64699;0.000;0.000;2024-01-30T03:40:29;102252.06;;;19.49
76007;BMP280;64699;0.000;0.000;2024-01-30T03:42:54;102253.06;;;19.46
76007;BMP280;64699;0.000;0.000;2024-01-30T03:45:20;102253.53;;;19.45
76007;BMP280;64699;0.000;0.000;2024-01-30T03:47:45;102252.53;;;19.42
76007;BMP280;64699;0.000;0.000;2024-01-30T03:50:10;102253.78;;;19.41
76007;BMP280;64699;0.000;0.000;2024-01-30T03:52:35;102251.53;;;19.40
76007;BMP280;64699;0.000;0.000;2024-01-30T03:55:00;102257.03;;;19.40
76007;BMP280;64699;0.000;0.000;2024-01-30T03:57:26;102254.00;;;19.38
76007;BMP280;64699;0.000;0.000;2024-01-30T03:59:51;102249.75;;;19.37
76007;BMP280;64699;0.000;0.000;2024-01-30T04:02:16;102252.50;;;19.37
76007;BMP280;64699;0.000;0.000;2024-01-30T04:04:42;102248.25;;;19.36
76007;BMP280;64699;0.000;0.000;2024-01-30T04:07:08;102259.28;;;19.36
76007;BMP280;64699;0.000;0.000;2024-01-30T04:09:33;102253.50;;;19.34
76007;BMP280;64699;0.000;0.000;2024-01-30T04:11:58;102253.50;;;19.34
76007;BMP280;64699;0.000;0.000;2024-01-30T04:14:23;102257.50;;;19.33
76007;BMP280;64699;0.000;0.000;2024-01-30T04:16:48;102256.72;;;19.32
76007;BMP280;64699;0.000;0.000;2024-01-30T04:19:14;102248.97;;;19.31
76007;BMP280;64699;0.000;0.000;2024-01-30T04:21:39;102250.97;;;19.30
76007;BMP280;64699;0.000;0.000;2024-01-30T04:24:04;102254.47;;;19.31
76007;BMP280;64699;0.000;0.000;2024-01-30T04:26:30;102251.72;;;19.31
76007;BMP280;64699;0.000;0.000;2024-01-30T04:28:55;102260.75;;;19.31
76007;BMP280;64699;0.000;0.000;2024-01-30T04:31:20;102254.47;;;19.31
76007;BMP280;64699;0.000;0.000;2024-01-30T04:33:45;102261.22;;;19.30
76007;BMP280;64699;0.000;0.000;2024-01-30T04:36:11;102251.44;;;19.29
76007;BMP280;64699;0.000;0.000;2024-01-30T04:38:36;102258.94;;;19.28
76007;BMP280;64699;0.000;0.000;2024-01-30T04:41:02;102258.19;;;19.28
76007;BMP280;64699;0.000;0.000;2024-01-30T04:43:27;102263.25;;;19.29
76007;BMP280;64699;0.000;0.000;2024-01-30T04:45:52;102253.97;;;19.27
76007;BMP280;64699;0.000;0.000;2024-01-30T04:48:17;102245.16;;;19.28
76007;BMP280;64699;0.000;0.000;2024-01-30T04:50:42;102244.94;;;19.32
76007;BMP280;64699;0.000;0.000;2024-01-30T04:53:08;102246.47;;;19.33
76007;BMP280;64699;0.000;0.000;2024-01-30T04:55:34;102246.25;;;19.36
76007;BMP280;64699;0.000;0.000;2024-01-30T04:57:59;102248.50;;;19.38
76007;BMP280;64699;0.000;0.000;2024-01-30T05:00:25;102250.53;;;19.43
76007;BMP280;64699;0.000;0.000;2024-01-30T05:02:50;102253.53;;;19.45
76007;BMP280;64699;0.000;0.000;2024-01-30T05:05:15;102254.06;;;19.49
76007;BMP280;64699;0.000;0.000;2024-01-30T05:07:41;102248.81;;;19.51
76007;BMP280;64699;0.000;0.000;2024-01-30T05:10:07;102254.84;;;19.55
76007;BMP280;64699;0.000;0.000;2024-01-30T05:12:33;102250.88;;;19.56
76007;BMP280;64699;0.000;0.000;2024-01-30T05:14:58;102250.38;;;19.57
76007;BMP280;64699;0.000;0.000;2024-01-30T05:17:23;102245.59;;;19.58
76007;BMP280;64699;0.000;0.000;2024-01-30T05:19:48;102253.66;;;19.61
76007;BMP280;64699;0.000;0.000;2024-01-30T05:22:14;102254.66;;;19.64
76007;BMP280;64699;0.000;0.000;2024-01-30T05:24:40;102245.88;;;19.60
76007;BMP280;64699;0.000;0.000;2024-01-30T05:27:06;102252.88;;;19.66
76007;BMP280;64699;0.000;0.000;2024-01-30T05:29:31;102251.41;;;19.71
76007;BMP280;64699;0.000;0.000;2024-01-30T05:31:56;102233.63;;;19.72
76007;BMP280;64699;0.000;0.000;2024-01-30T05:34:21;102239.91;;;19.78
76007;BMP280;64699;0.000;0.000;2024-01-30T05:36:46;102227.63;;;19.79
76007;BMP280;64699;0.000;0.000;2024-01-30T05:39:12;102242.97;;;19.85
76007;BMP280;64699;0.000;0.000;2024-01-30T05:41:37;102239.72;;;19.87
76007;BMP280;64699;0.000;0.000;2024-01-30T05:44:02;102236.19;;;19.86
76007;BMP280;64699;0.000;0.000;2024-01-30T05:46:27;102237.22;;;19.89
76007;BMP280;64699;0.000;0.000;2024-01-30T05:48:52;102234.22;;;19.98
76007;BMP280;64699;0.000;0.000;2024-01-30T05:51:18;102235.19;;;19.89
76007;BMP280;64699;0.000;0.000;2024-01-30T05:53:43;102242.50;;;19.98
76007;BMP280;64699;0.000;0.000;2024-01-30T05:56:08;102239.50;;;20.01
76007;BMP280;64699;0.000;0.000;2024-01-30T05:58:33;102239.75;;;19.98
76007;BMP280;64699;0.000;0.000;2024-01-30T06:00:59;102245.50;;;19.99
76007;BMP280;64699;0.000;0.000;2024-01-30T06:03:24;102252.03;;;19.97
76007;BMP280;64699;0.000;0.000;2024-01-30T06:05:49;102256.81;;;20.01
76007;BMP280;64699;0.000;0.000;2024-01-30T06:08:14;102255.56;;;20.02
76007;BMP280;64699;0.000;0.000;2024-01-30T06:10:40;102253.06;;;20.10
76007;BMP280;64699;0.000;0.000;2024-01-30T06:13:05;102258.34;;;20.13
76007;BMP280;64699;0.000;0.000;2024-01-30T06:15:30;102252.81;;;20.13
76007;BMP280;64699;0.000;0.000;2024-01-30T06:17:57;102248.09;;;20.14
76007;BMP280;64699;0.000;0.000;2024-01-30T06:20:22;102253.84;;;20.21
76007;BMP280;64699;0.000;0.000;2024-01-30T06:22:48;102247.38;;;20.35
76007;BMP280;64699;0.000;0.000;2024-01-30T06:25:13;102248.84;;;20.36
76007;BMP280;64699;0.000;0.000;2024-01-30T06:27:38;102248.09;;;20.36
76007;BMP280;64699;0.000;0.000;2024-01-30T06:30:04;102249.63;;;20.37
76007;BMP280;64699;0.000;0.000;2024-01-30T06:32:29;102258.91;;;20.39
76007;BMP280;64699;0.000;0.000;2024-01-30T06:34:59;102253.63;;;20.41
76007;BMP280;64699;0.000;0.000;2024-01-30T06:37:24;102248.03;;;19.98
76007;BMP280;64699;0.000;0.000;2024-01-30T06:39:49;102246.72;;;19.82
76007;BMP280;64699;0.000;0.000;2024-01-30T06:42:14;102256.44;;;19.72
76007;BMP280;64699;0.000;0.000;2024-01-30T06:44:39;102245.66;;;19.69
76007;BMP280;64699;0.000;0.000;2024-01-30T06:47:05;102244.94;;;19.79
76007;BMP280;64699;0.000;0.000;2024-01-30T06:49:30;102248.03;;;20.03
76007;BMP280;64699;0.000;0.000;2024-01-30T06:51:56;102239.50;;;20.01
76007;BMP280;64699;0.000;0.000;2024-01-30T06:54:21;102244.41;;;19.70
76007;BMP280;64699;0.000;0.000;2024-01-30T06:56:46;102243.63;;;19.64
76007;BMP280;64699;0.000;0.000;2024-01-30T06:59:11;102252.38;;;19.62
76007;BMP280;64699;0.000;0.000;2024-01-30T07:01:37;102243.63;;;19.64
76007;BMP280;64699;0.000;0.000;2024-01-30T07:04:02;102245.16;;;19.65
76007;BMP280;64699;0.000;0.000;2024-01-30T07:06:28;102260.94;;;19.64
76007;BMP280;64699;0.000;0.000;2024-01-30T07:08:53;102256.19;;;19.65
76007;BMP280;64699;0.000;0.000;2024-01-30T07:11:19;102253.41;;;19.65
76007;BMP280;64699;0.000;0.000;2024-01-30T07:13:45;102256.91;;;19.60
76007;BMP280;64699;0.000;0.000;2024-01-30T07:16:10;102249.63;;;19.62
76007;BMP280;64699;0.000;0.000;2024-01-30T07:18:35;102257.44;;;19.64
76007;BMP280;64699;0.000;0.000;2024-01-30T07:21:00;102258.63;;;19.63
76007;BMP280;64699;0.000;0.000;2024-01-30T07:23:25;102257.66;;;19.60
76007;BMP280;64699;0.000;0.000;2024-01-30T07:25:51;102253.13;;;19.63
76007;BMP280;64699;0.000;0.000;2024-01-30T07:28:16;102254.13;;;19.60
76007;BMP280;64699;0.000;0.000;2024-01-30T07:30:42;102252.63;;;19.59
76007;BMP280;64699;0.000;0.000;2024-01-30T07:33:07;102255.16;;;19.57
76007;BMP280;64699;0.000;0.000;2024-01-30T07:35:33;102249.88;;;19.59
76007;BMP280;64699;0.000;0.000;2024-01-30T07:37:58;102259.66;;;19.60
76007;BMP280;64699;0.000;0.000;2024-01-30T07:40:23;102246.56;;;19.55
76007;BMP280;64699;0.000;0.000;2024-01-30T07:42:49;102252.09;;;19.55
76007;BMP280;64699;0.000;0.000;2024-01-30T07:45:14;102256.63;;;19.58
76007;BMP280;64699;0.000;0.000;2024-01-30T07:47:39;102255.16;;;19.57
76007;BMP280;64699;0.000;0.000;2024-01-30T07:50:05;102252.38;;;19.57
76007;BMP280;64699;0.000;0.000;2024-01-30T07:52:30;102252.38;;;19.57
76007;BMP280;64699;0.000;0.000;2024-01-30T07:54:55;102242.63;;;19.61
76007;BMP280;64699;0.000;0.000;2024-01-30T07:57:21;102254.66;;;19.64
76007;BMP280;64699;0.000;0.000;2024-01-30T07:59:46;102253.78;;;19.41
76007;BMP280;64699;0.000;0.000;2024-01-30T08:02:14;102251.50;;;18.73
76007;BMP280;64699;0.000;0.000;2024-01-30T08:04:40;102250.91;;;18.13
76007;BMP280;64699;0.000;0.000;2024-01-30T08:07:05;102247.59;;;18.79
76007;BMP280;64699;0.000;0.000;2024-01-30T08:09:30;102256.91;;;19.18
76007;BMP280;64699;0.000;0.000;2024-01-30T08:11:55;102245.72;;;19.38
76007;BMP280;64699;0.000;0.000;2024-01-30T08:14:20;102256.53;;;19.41
76007;BMP280;64699;0.000;0.000;2024-01-30T08:16:46;102240.78;;;19.47
76007;BMP280;64699;0.000;0.000;2024-01-30T08:19:11;102246.78;;;19.46
76007;BMP280;64699;0.000;0.000;2024-01-30T08:21:36;102234.81;;;19.54
76007;BMP280;64699;0.000;0.000;2024-01-30T08:24:04;102232.88;;;19.71
76007;BMP280;64699;0.000;0.000;2024-01-30T08:26:29;102236.19;;;19.81
76007;BMP280;64699;0.000;0.000;2024-01-30T08:28:55;102234.44;;;19.89
76007;BMP280;64699;0.000;0.000;2024-01-30T08:31:20;102239.22;;;19.94
76007;BMP280;64699;0.000;0.000;2024-01-30T08:33:45;102236.22;;;19.97
76007;BMP280;64699;0.000;0.000;2024-01-30T08:36:10;102233.22;;;20.00
76007;BMP280;64699;0.000;0.000;2024-01-30T08:38:35;102233.75;;;20.04
76007;BMP280;64699;0.000;0.000;2024-01-30T08:41:00;102230.72;;;20.08
76007;BMP280;64699;0.000;0.000;2024-01-30T08:43:25;102236.75;;;20.12
76007;BMP280;64699;0.000;0.000;2024-01-30T08:45:51;102240.53;;;20.14
76007;BMP280;64699;0.000;0.000;2024-01-30T08:48:16;102232.78;;;20.18
76007;BMP280;64699;0.000;0.000;2024-01-30T08:50:42;102238.78;;;20.22
76007;BMP280;64699;0.000;0.000;2024-01-30T08:53:07;102232.28;;;20.25
76007;BMP280;64699;0.000;0.000;2024-01-30T08:55:33;102232.53;;;20.27
76007;BMP280;64699;0.000;0.000;2024-01-30T08:57:58;102235.53;;;20.29
76007;BMP280;64699;0.000;0.000;2024-01-30T09:00:24;102230.28;;;20.31
76007;BMP280;64699;0.000;0.000;2024-01-30T09:02:49;102238.81;;;20.33
76007;BMP280;64699;0.000;0.000;2024-01-30T09:05:14;102233.56;;;20.35
76007;BMP280;64699;0.000;0.000;2024-01-30T09:07:40;102237.06;;;20.36
76007;BMP280;64699;0.000;0.000;2024-01-30T09:10:05;102235.03;;;20.36
76007;BMP280;64699;0.000;0.000;2024-01-30T09:12:31;102239.31;;;20.37
76007;BMP280;64699;0.000;0.000;2024-01-30T09:14:56;102235.03;;;20.36
76007;BMP280;64699;0.000;0.000;2024-01-30T09:17:21;102236.06;;;20.39
76007;BMP280;64699;0.000;0.000;2024-01-30T09:19:46;102231.53;;;20.41
76007;BMP280;64699;0.000;0.000;2024-01-30T09:22:12;102227.78;;;20.39
76007;BMP280;64699;0.000;0.000;2024-01-30T09:24:37;102233.53;;;20.41
76007;BMP280;64699;0.000;0.000;2024-01-30T09:27:02;102232.53;;;20.38
76007;BMP280;64699;0.000;0.000;2024-01-30T09:29:28;102231.28;;;20.39
76007;BMP280;64699;0.000;0.000;2024-01-30T09:31:53;102232.06;;;20.40
76007;BMP280;64699;0.000;0.000;2024-01-30T09:34:18;102232.84;;;20.40
76007;BMP280;64699;0.000;0.000;2024-01-30T09:36:44;102230.06;;;20.40
76007;BMP280;64699;0.000;0.000;2024-01-30T09:39:09;102225.78;;;20.39
76007;BMP280;64699;0.000;0.000;2024-01-30T09:41:36;102217.47;;;20.39
76007;BMP280;64699;0.000;0.000;2024-01-30T09:44:06;102224.00;;;20.42
76007;BMP280;64699;0.000;0.000;2024-01-30T09:46:32;102217.75;;;20.41
76007;BMP280;64699;0.000;0.000;2024-01-30T09:48:58;102218.25;;;20.40
76007;BMP280;64699;0.000;0.000;2024-01-30T09:51:23;102215.50;;;20.40
76007;BMP280;64699;0.000;0.000;2024-01-30T09:53:49;102213.97;;;20.39
76007;BMP280;64699;0.000;0.000;2024-01-30T09:56:15;102215.50;;;20.40
76007;BMP280;64699;0.000;0.000;2024-01-30T09:58:41;102209.19;;;20.39
76007;BMP280;64699;0.000;0.000;2024-01-30T10:01:07;102205.44;;;20.37
76007;BMP280;64699;0.000;0.000;2024-01-30T10:03:32;102213.97;;;20.39
76007;BMP280;64699;0.000;0.000;2024-01-30T10:05:57;102204.44;;;20.40
76007;BMP280;64699;0.000;0.000;2024-01-30T10:08:23;102199.41;;;20.38
76007;BMP280;64699;0.000;0.000;2024-01-30T10:10:48;102201.44;;;20.38
76007;BMP280;64699;0.000;0.000;2024-01-30T10:13:14;102195.91;;;20.38
76007;BMP280;64699;0.000;0.000;2024-01-30T10:15:40;102195.66;;;20.36
76007;BMP280;64699;0.000;0.000;2024-01-30T10:18:06;102191.63;;;20.37
76007;BMP280;64699;0.000;0.000;2024-01-30T10:20:34;102193.16;;;20.38
76007;BMP280;64699;0.000;0.000;2024-01-30T10:22:59;102183.34;;;20.37
76007;BMP280;64699;0.000;0.000;2024-01-30T10:25:25;102194.13;;;20.29
76007;BMP280;64699;0.000;0.000;2024-01-30T10:27:53;102183.41;;;17.72
76007;BMP280;64699;0.000;0.000;2024-01-30T10:30:22;102178.75;;;18.79
76007;BMP280;64699;0.000;0.000;2024-01-30T10:32:47;102174.09;;;19.43
76007;BMP280;64699;0.000;0.000;2024-01-30T10:35:13;102163.34;;;19.51
76007;BMP280;64699;0.000;0.000;2024-01-30T10:37:38;102169.38;;;19.55
76007;BMP280;64699;0.000;0.000;2024-01-30T10:40:03;102157.59;;;19.54
76007;BMP280;64699;0.000;0.000;2024-01-30T10:42:31;102163.84;;;19.55
76007;BMP280;64699;0.000;0.000;2024-01-30T10:44:59;102157.13;;;19.56
76007;BMP280;64699;0.000;0.000;2024-01-30T10:47:28;102158.63;;;19.57
76007;BMP280;64699;0.000;0.000;2024-01-30T10:49:54;102157.34;;;19.58
76007;BMP280;64699;0.000;0.000;2024-01-30T10:52:20;102149.81;;;19.58
76007;BMP280;64699;0.000;0.000;2024-01-30T10:54:45;102143.34;;;19.56
76007;BMP280;64699;0.000;0.000;2024-01-30T10:57:11;102142.31;;;19.59
76007;BMP280;64699;0.000;0.000;2024-01-30T10:59:37;102139.03;;;19.55
76007;BMP280;64699;0.000;0.000;2024-01-30T11:02:03;102137.81;;;19.56
76007;BMP280;64699;0.000;0.000;2024-01-30T11:04:35;102138.56;;;19.56
76007;BMP280;64699;0.000;0.000;2024-01-30T11:07:01;102129.53;;;19.56
76007;BMP280;64699;0.000;0.000;2024-01-30T11:09:28;102132.53;;;19.58
76007;BMP280;64699;0.000;0.000;2024-01-30T11:14:25;102132.31;;;19.56
76007;BMP280;64699;0.000;0.000;2024-01-30T11:16:51;102119.72;;;19.55
76007;BMP280;64699;0.000;0.000;2024-01-30T11:19:22;102116.75;;;19.53
76007;BMP280;64699;0.000;0.000;2024-01-30T11:21:47;102111.75;;;19.68
76007;BMP280;64699;0.000;0.000;2024-01-30T11:24:15;102110.31;;;19.94
76007;BMP280;64699;0.000;0.000;2024-01-30T11:26:42;102114.34;;;20.09
76007;BMP280;64699;0.000;0.000;2024-01-30T11:29:07;102102.53;;;20.14
76007;BMP280;64699;0.000;0.000;2024-01-30T11:31:33;102108.56;;;20.18
76007;BMP280;64699;0.000;0.000;2024-01-30T11:33:58;102108.03;;;19.87
76007;BMP280;64699;0.000;0.000;2024-01-30T11:36:25;102101.50;;;19.68
76007;BMP280;64699;0.000;0.000;2024-01-30T11:38:50;102097.97;;;19.68
76007;BMP280;64699;0.000;0.000;2024-01-30T11:41:15;102096.25;;;19.98
76007;BMP280;64699;0.000;0.000;2024-01-30T11:43:41;102097.50;;;20.07
76007;BMP280;64699;0.000;0.000;2024-01-30T11:46:06;102098.75;;;20.12
76007;BMP280;64699;0.000;0.000;2024-01-30T11:48:32;102090.25;;;20.15
76007;BMP280;64699;0.000;0.000;2024-01-30T11:50:57;102076.97;;;20.14
76007;BMP280;64699;0.000;0.000;2024-01-30T11:53:22;102081.72;;;20.13
76007;BMP280;64699;0.000;0.000;2024-01-30T11:55:50;102070.66;;;20.13
76007;BMP280;64699;0.000;0.000;2024-01-30T11:58:16;102085.97;;;20.14
76007;BMP280;64699;0.000;0.000;2024-01-30T12:00:41;102081.97;;;20.15
76007;BMP280;64699;0.000;0.000;2024-01-30T12:03:06;102080.47;;;20.14
76007;BMP280;64699;0.000;0.000;2024-01-30T12:05:32;102075.97;;;20.11
76007;BMP280;64699;0.000;0.000;2024-01-30T12:07:57;102083.47;;;20.11
76007;BMP280;64699;0.000;0.000;2024-01-30T12:10:24;102069.41;;;20.09
76007;BMP280;64699;0.000;0.000;2024-01-30T12:12:49;102074.44;;;20.10
76007;BMP280;64699;0.000;0.000;2024-01-30T12:15:15;102070.19;;;20.09
76007;BMP280;64699;0.000;0.000;2024-01-30T12:17:40;102071.41;;;20.08
76007;BMP280;64699;0.000;0.000;2024-01-30T12:20:10;102067.13;;;20.07
76007;BMP280;64699;0.000;0.000;2024-01-30T12:22:42;102069.66;;;20.05
76007;BMP280;64699;0.000;0.000;2024-01-30T12:25:08;102071.19;;;20.06
76007;BMP280;64699;0.000;0.000;2024-01-30T12:27:33;102064.16;;;20.05
76007;BMP280;64699;0.000;0.000;2024-01-30T12:29:59;102058.38;;;20.03
76007;BMP280;64699;0.000;0.000;2024-01-30T12:32:24;102059.13;;;20.04
76007;BMP280;64699;0.000;0.000;2024-01-30T12:34:49;102058.88;;;20.02
76007;BMP280;64699;0.000;0.000;2024-01-30T12:37:14;102050.34;;;20.00
76007;BMP280;64699;0.000;0.000;2024-01-30T12:39:44;102047.84;;;20.02
76007;BMP280;64699;0.000;0.000;2024-01-30T12:42:09;102049.59;;;19.99
76007;BMP280;64699;0.000;0.000;2024-01-30T12:44:35;102052.38;;;19.94
76007;BMP280;64699;0.000;0.000;2024-01-30T12:47:02;102048.34;;;19.95
76007;BMP280;64699;0.000;0.000;2024-01-30T12:49:27;102053.88;;;19.84
76007;BMP280;64699;0.000;0.000;2024-01-30T12:51:53;102050.34;;;19.67
76007;BMP280;64699;0.000;0.000;2024-01-30T12:54:18;102053.06;;;19.51
76007;BMP280;64699;0.000;0.000;2024-01-30T12:56:43;102052.06;;;19.43
76007;BMP280;64699;0.000;0.000;2024-01-30T12:59:08;102051.03;;;19.46
76007;BMP280;64699;0.000;0.000;2024-01-30T13:01:33;102042.75;;;19.46
76007;BMP280;64699;0.000;0.000;2024-01-30T13:03:59;102048.81;;;19.44
76007;BMP280;64699;0.000;0.000;2024-01-30T13:06:24;102050.78;;;19.38
76007;BMP280;64699;0.000;0.000;2024-01-30T13:08:49;102051.03;;;19.35
76007;BMP280;64699;0.000;0.000;2024-01-30T13:11:14;102049.78;;;19.36
76007;BMP280;64699;0.000;0.000;2024-01-30T13:13:39;102036.50;;;19.40
76007;BMP280;64699;0.000;0.000;2024-01-30T13:16:05;102048.53;;;19.42
76007;BMP280;64699;0.000;0.000;2024-01-30T13:18:30;102037.22;;;19.40
76007;BMP280;64699;0.000;0.000;2024-01-30T13:20:56;102044.00;;;19.34
76007;BMP280;64699;0.000;0.000;2024-01-30T13:23:21;102042.50;;;19.33
76007;BMP280;64699;0.000;0.000;2024-01-30T13:25:46;102037.22;;;19.40
76007;BMP280;64699;0.000;0.000;2024-01-30T13:28:11;102036.00;;;19.36
76007;BMP280;64699;0.000;0.000;2024-01-30T13:30:36;102048.25;;;19.40
76007;BMP280;64699;0.000;0.000;2024-01-30T13:33:02;102035.50;;;19.43
76007;BMP280;64699;0.000;0.000;2024-01-30T13:35:28;102030.47;;;19.41
76007;BMP280;64699;0.000;0.000;2024-01-30T13:37:53;102040.50;;;19.39
76007;BMP280;64699;0.000;0.000;2024-01-30T13:40:18;102039.00;;;19.43
76007;BMP280;64699;0.000;0.000;2024-01-30T13:42:43;102029.47;;;19.39
76007;BMP280;64699;0.000;0.000;2024-01-30T13:45:09;102035.25;;;19.46
76007;BMP280;64699;0.000;0.000;2024-01-30T13:47:35;102043.53;;;19.41
76007;BMP280;64699;0.000;0.000;2024-01-30T13:50:00;102039.81;;;19.60
76007;BMP280;64699;0.000;0.000;2024-01-30T13:52:25;102033.28;;;19.63
76007;BMP280;64699;0.000;0.000;2024-01-30T13:54:52;102040.31;;;19.70
76007;BMP280;64699;0.000;0.000;2024-01-30T13:57:17;102037.28;;;19.68
76007;BMP280;64699;0.000;0.000;2024-01-30T13:59:42;102043.06;;;19.64
76007;BMP280;64699;0.000;0.000;2024-01-30T14:02:07;102034.53;;;19.68